Time;durP1;ratioP1;P1;durP2;ratioP2;P2;SDS_P1;SDS_P2;PMS_P1;PMS_P2;Temp;Humidity;BMP_temperature;BMP_pressure;BME280_temperature;BME280_humidity;BME280_pressure;Samples;Min_cycle;Max_cycle;Signal;HPM_P1;HPM_P2
2023/12/13 00:00:32;;;;;;;7.05;2.00;;;8.60;99.90;;;;;;5070996;28;20056;-69
2023/12/13 00:03:01;;;;;;;4.93;1.00;;;8.60;99.90;;;;;;5070028;28;20161;-69
2023/12/13 00:05:28;;;;;;;5.60;1.33;;;8.60;99.90;;;;;;5069977;28;20572;-69
2023/12/13 00:07:55;;;;;;;4.63;1.15;;;8.60;99.90;;;;;;5071516;28;20044;-68
2023/12/13 00:10:21;;;;;;;4.28;1.10;;;8.60;99.90;;;;;;5069909;28;20128;-69
2023/12/13 00:12:48;;;;;;;3.30;1.20;;;8.70;99.90;;;;;;5061183;28;20087;-70
2023/12/13 00:15:15;;;;;;;7.45;1.45;;;8.60;99.90;;;;;;5065188;28;20044;-69
2023/12/13 00:17:42;;;;;;;3.63;1.83;;;8.60;99.90;;;;;;5069593;28;20044;-68
2023/12/13 00:20:09;;;;;;;10.15;1.42;;;8.60;99.90;;;;;;5070465;28;20083;-69
2023/12/13 00:22:36;;;;;;;8.02;1.42;;;8.60;99.90;;;;;;5067790;28;20548;-69
2023/12/13 00:25:03;;;;;;;4.80;1.25;;;8.70;99.90;;;;;;5070002;28;20132;-69
2023/12/13 00:27:30;;;;;;;3.03;1.27;;;8.70;99.90;;;;;;5074932;28;20045;-69
2023/12/13 00:29:57;;;;;;;7.32;2.10;;;8.60;99.90;;;;;;5069837;28;20492;-69
2023/12/13 00:32:24;;;;;;;5.53;1.40;;;8.70;99.90;;;;;;5067773;28;20052;-69
2023/12/13 00:34:51;;;;;;;3.45;0.90;;;8.60;99.90;;;;;;5069127;28;20134;-69
2023/12/13 00:37:18;;;;;;;3.17;1.08;;;8.60;99.90;;;;;;5067978;28;20041;-69
2023/12/13 00:39:45;;;;;;;5.35;1.80;;;8.60;99.90;;;;;;5068009;28;20052;-69
2023/12/13 00:42:12;;;;;;;5.43;1.40;;;8.60;99.90;;;;;;5060638;28;20049;-69
2023/12/13 00:44:39;;;;;;;9.45;1.40;;;8.70;99.90;;;;;;5062333;28;20051;-69
2023/12/13 00:47:06;;;;;;;6.03;1.70;;;8.60;99.90;;;;;;5061590;28;20120;-69
2023/12/13 00:49:33;;;;;;;8.48;1.10;;;8.60;99.90;;;;;;5069050;28;20056;-69
2023/12/13 00:52:00;;;;;;;9.80;1.60;;;8.50;99.90;;;;;;5059605;28;20048;-69
2023/12/13 00:54:27;;;;;;;11.25;2.38;;;8.50;99.90;;;;;;5063962;28;20095;-70
2023/12/13 00:56:54;;;;;;;6.95;1.67;;;8.40;99.90;;;;;;5068047;28;20360;-68
2023/12/13 00:59:20;;;;;;;5.68;2.58;;;8.40;99.90;;;;;;4711576;28;10000055;-69
2023/12/13 01:01:47;;;;;;;3.75;1.63;;;8.30;99.90;;;;;;5062347;28;20097;-68
2023/12/13 01:04:14;;;;;;;9.00;2.05;;;8.30;99.90;;;;;;5066223;28;20041;-69
2023/12/13 01:06:42;;;;;;;9.30;1.90;;;8.30;99.90;;;;;;5061620;28;20052;-68
2023/12/13 01:09:09;;;;;;;6.45;1.90;;;8.20;99.90;;;;;;5068680;28;20124;-68
2023/12/13 01:11:36;;;;;;;7.78;1.80;;;8.30;99.90;;;;;;5068955;28;20060;-68
2023/12/13 01:14:07;;;;;;;4.82;1.65;;;8.30;99.90;;;;;;5062699;28;20144;-69
2023/12/13 01:16:34;;;;;;;10.88;1.92;;;8.30;99.90;;;;;;5062341;28;20048;-69
2023/12/13 01:19:01;;;;;;;11.38;2.13;;;8.30;99.90;;;;;;5068837;28;20044;-68
2023/12/13 01:21:28;;;;;;;6.18;1.92;;;8.30;99.90;;;;;;5058597;28;20075;-69
2023/12/13 01:23:56;;;;;;;11.23;2.53;;;8.30;99.90;;;;;;5068525;28;20487;-69
2023/12/13 01:26:23;;;;;;;8.50;1.92;;;8.30;99.90;;;;;;5069011;28;20048;-68
2023/12/13 01:28:49;;;;;;;2.72;1.63;;;8.30;99.90;;;;;;5051052;28;20055;-68
2023/12/13 01:31:17;;;;;;;4.93;2.00;;;8.30;99.90;;;;;;5084437;28;20045;-68
2023/12/13 01:33:44;;;;;;;7.30;2.13;;;8.30;99.90;;;;;;5068449;28;20056;-68
2023/12/13 01:36:11;;;;;;;7.85;1.90;;;8.30;99.90;;;;;;5068607;28;20044;-69
2023/12/13 01:38:38;;;;;;;6.82;1.73;;;8.30;99.90;;;;;;5068636;28;20482;-68
2023/12/13 01:41:05;;;;;;;10.35;2.30;;;8.30;99.90;;;;;;5068884;28;20079;-68
2023/12/13 01:43:40;;;;;;;5.72;2.08;;;8.30;99.90;;;;;;5083146;28;20044;-68
2023/12/13 01:46:07;;;;;;;10.73;2.78;;;8.30;99.90;;;;;;5068263;28;20087;-68
2023/12/13 01:48:35;;;;;;;10.45;2.63;;;8.30;99.90;;;;;;5068394;28;20215;-68
2023/12/13 01:51:02;;;;;;;5.05;2.03;;;8.30;99.90;;;;;;5066584;28;20572;-68
2023/12/13 01:53:29;;;;;;;7.25;2.28;;;8.30;99.90;;;;;;5034647;28;20036;-68
2023/12/13 01:55:56;;;;;;;8.52;2.38;;;8.30;99.90;;;;;;5068382;28;20052;-68
2023/12/13 01:58:23;;;;;;;8.27;2.42;;;8.30;99.90;;;;;;5068425;28;20044;-68
2023/12/13 02:00:50;;;;;;;5.07;2.33;;;8.30;99.90;;;;;;5050157;28;20044;-68
2023/12/13 02:03:17;;;;;;;9.88;2.10;;;8.30;99.90;;;;;;5058245;28;20072;-68
2023/12/13 02:05:44;;;;;;;4.50;1.92;;;8.40;99.90;;;;;;5049968;28;20044;-68
2023/12/13 02:08:12;;;;;;;11.13;3.03;;;8.40;99.90;;;;;;5067580;28;20045;-67
2023/12/13 02:10:38;;;;;;;6.60;2.63;;;8.50;99.90;;;;;;5050148;28;20129;-68
2023/12/13 02:13:05;;;;;;;10.25;3.00;;;8.30;99.90;;;;;;5068324;28;20044;-68
2023/12/13 02:15:35;;;;;;;7.50;2.63;;;8.30;99.90;;;;;;5064984;28;20103;-69
2023/12/13 02:18:02;;;;;;;6.75;2.72;;;8.30;99.90;;;;;;5083050;28;20447;-68
2023/12/13 02:20:30;;;;;;;5.60;2.70;;;8.30;99.90;;;;;;5067665;28;20044;-68
2023/12/13 02:22:56;;;;;;;5.97;2.78;;;8.30;99.90;;;;;;5067008;28;20275;-67
2023/12/13 02:26:01;;;;;;;8.52;2.95;;;8.30;99.90;;;;;;5066484;28;20048;-68
2023/12/13 02:28:28;;;;;;;5.00;3.40;;;8.30;99.90;;;;;;5065989;28;20079;-68
2023/12/13 02:30:56;;;;;;;8.95;4.07;;;8.30;99.90;;;;;;5067521;28;20070;-68
2023/12/13 02:33:26;;;;;;;6.68;4.18;;;8.30;99.90;;;;;;5068087;28;20055;-68
2023/12/13 02:35:55;;;;;;;10.10;4.50;;;8.40;99.90;;;;;;5065059;28;20139;-68
2023/12/13 02:38:22;;;;;;;7.32;3.72;;;8.30;99.90;;;;;;5082857;28;20128;-68
2023/12/13 02:40:49;;;;;;;10.80;4.50;;;8.30;99.90;;;;;;5067771;28;20295;-67
2023/12/13 02:43:15;;;;;;;6.50;3.97;;;8.30;99.90;;;;;;5067601;28;20052;-69
2023/12/13 02:45:42;;;;;;;9.52;4.85;;;8.40;99.90;;;;;;5064738;28;20076;-68
2023/12/13 02:48:10;;;;;;;7.25;4.70;;;8.30;99.90;;;;;;5067487;28;20048;-68
2023/12/13 02:50:38;;;;;;;8.23;5.57;;;8.40;99.90;;;;;;5067852;28;20060;-67
2023/12/13 02:53:06;;;;;;;8.02;5.90;;;8.40;99.90;;;;;;5067312;28;20036;-68
2023/12/13 02:55:32;;;;;;;10.90;5.88;;;8.30;99.90;;;;;;5062273;28;20904;-68
2023/12/13 02:58:00;;;;;;;8.25;5.47;;;8.30;99.90;;;;;;5063858;28;20118;-69
2023/12/13 03:00:27;;;;;;;10.07;5.88;;;8.30;99.90;;;;;;5062276;28;20080;-69
2023/12/13 03:02:55;;;;;;;9.10;5.68;;;8.30;99.90;;;;;;5066695;28;20552;-68
2023/12/13 03:05:23;;;;;;;14.20;6.75;;;8.30;99.90;;;;;;5067712;28;20117;-68
2023/12/13 03:07:50;;;;;;;7.43;5.32;;;8.30;99.90;;;;;;5066071;28;20080;-69
2023/12/13 03:10:17;;;;;;;9.48;5.63;;;8.30;99.90;;;;;;5049507;28;20459;-69
2023/12/13 03:12:44;;;;;;;10.02;5.82;;;8.30;99.90;;;;;;5067370;28;20498;-68
2023/12/13 03:15:10;;;;;;;9.48;5.57;;;8.40;99.90;;;;;;5060951;28;20060;-68
2023/12/13 03:17:37;;;;;;;10.07;5.45;;;8.40;99.90;;;;;;5064707;28;20044;-68
2023/12/13 03:20:05;;;;;;;10.52;5.57;;;8.40;99.90;;;;;;5067573;28;20048;-67
2023/12/13 03:22:32;;;;;;;6.72;5.75;;;8.40;99.90;;;;;;5072188;28;20525;-69
2023/12/13 03:24:59;;;;;;;9.48;6.22;;;8.40;99.90;;;;;;5066189;28;20051;-68
2023/12/13 03:27:26;;;;;;;8.43;6.18;;;8.40;99.90;;;;;;5068099;28;20079;-68
2023/12/13 03:29:52;;;;;;;8.95;6.38;;;8.50;99.90;;;;;;5067291;28;20052;-69
2023/12/13 03:32:19;;;;;;;9.10;6.50;;;8.50;99.90;;;;;;5056627;28;20545;-68
2023/12/13 03:34:46;;;;;;;12.18;6.78;;;8.50;99.90;;;;;;5065340;28;20134;-67
2023/12/13 03:37:14;;;;;;;17.58;8.10;;;8.40;99.90;;;;;;5065927;28;20049;-69
2023/12/13 03:39:41;;;;;;;15.93;7.97;;;8.40;99.90;;;;;;5066704;28;20048;-67
2023/12/13 03:42:08;;;;;;;19.02;9.65;;;8.40;99.90;;;;;;5066934;28;20498;-68
2023/12/13 03:44:35;;;;;;;20.23;8.05;;;8.40;99.90;;;;;;5065797;28;20041;-68
2023/12/13 03:47:01;;;;;;;15.52;9.52;;;8.40;99.90;;;;;;5065879;28;20080;-68
2023/12/13 03:49:28;;;;;;;14.57;8.57;;;8.50;99.90;;;;;;5065812;28;20040;-69
2023/12/13 03:51:55;;;;;;;11.30;8.27;;;8.50;99.90;;;;;;5066308;28;20060;-69
2023/12/13 03:54:22;;;;;;;17.95;8.75;;;8.50;99.90;;;;;;5065909;28;20451;-68
2023/12/13 03:56:49;;;;;;;15.82;9.82;;;8.50;99.90;;;;;;5079062;28;20052;-70
2023/12/13 03:59:16;;;;;;;17.75;9.82;;;8.50;99.90;;;;;;5065672;28;20064;-69
2023/12/13 04:01:42;;;;;;;17.48;9.95;;;8.50;99.90;;;;;;5066057;28;20078;-68
2023/12/13 04:04:09;;;;;;;19.75;11.05;;;8.50;99.90;;;;;;5065402;28;20495;-69
2023/12/13 04:06:40;;;;;;;18.00;11.10;;;8.50;99.90;;;;;;5051818;28;20725;-68
2023/12/13 04:09:10;;;;;;;14.57;9.38;;;8.40;99.90;;;;;;5063933;28;20136;-68
2023/12/13 04:11:37;;;;;;;22.50;10.60;;;8.40;99.90;;;;;;5066159;28;20475;-68
2023/12/13 04:14:04;;;;;;;21.67;10.88;;;8.40;99.90;;;;;;5066905;28;20118;-68
2023/12/13 04:16:32;;;;;;;23.00;11.02;;;8.40;99.90;;;;;;5059742;28;20072;-68
2023/12/13 04:18:59;;;;;;;27.80;11.75;;;8.50;99.90;;;;;;5051315;28;20041;-67
2023/12/13 04:21:26;;;;;;;18.40;10.68;;;8.50;99.90;;;;;;5069366;28;20052;-68
2023/12/13 04:23:53;;;;;;;24.92;11.60;;;8.50;99.90;;;;;;5069238;28;20044;-68
2023/12/13 04:26:20;;;;;;;21.95;11.25;;;8.50;99.90;;;;;;5051642;28;20044;-68
2023/12/13 04:28:46;;;;;;;22.77;10.77;;;8.40;99.90;;;;;;5051446;28;20051;-68
2023/12/13 04:31:13;;;;;;;22.35;10.32;;;8.40;99.90;;;;;;5069066;28;20052;-68
2023/12/13 04:33:40;;;;;;;19.58;9.50;;;8.40;99.90;;;;;;5069465;28;20044;-68
2023/12/13 04:36:08;;;;;;;21.20;10.65;;;8.40;99.90;;;;;;5069134;28;20535;-69
2023/12/13 04:38:34;;;;;;;20.63;10.88;;;8.40;99.90;;;;;;5069386;28;20101;-66
2023/12/13 04:41:01;;;;;;;18.25;9.18;;;8.40;99.90;;;;;;5068495;28;20090;-69
2023/12/13 04:43:28;;;;;;;19.23;10.07;;;8.40;99.90;;;;;;5051352;28;20064;-68
2023/12/13 04:45:55;;;;;;;20.55;9.52;;;8.50;99.90;;;;;;5064193;28;20748;-69
2023/12/13 04:48:22;;;;;;;18.00;9.57;;;8.40;99.90;;;;;;5066558;28;20458;-69
2023/12/13 04:50:48;;;;;;;18.63;10.25;;;8.50;99.90;;;;;;5068636;28;20099;-68
2023/12/13 04:53:15;;;;;;;19.35;10.27;;;8.50;99.90;;;;;;5068787;28;20040;-69
2023/12/13 04:55:42;;;;;;;22.10;11.23;;;8.40;99.90;;;;;;5068510;28;20044;-68
2023/12/13 04:58:09;;;;;;;18.90;9.65;;;8.40;99.90;;;;;;5068627;28;20055;-70
2023/12/13 05:00:36;;;;;;;20.98;11.43;;;8.40;99.90;;;;;;5068514;28;20082;-68
2023/12/13 05:03:03;;;;;;;24.48;11.23;;;8.40;99.90;;;;;;5068624;28;20052;-68
2023/12/13 05:05:30;;;;;;;21.60;12.52;;;8.40;99.90;;;;;;5066869;28;20094;-68
2023/12/13 05:07:56;;;;;;;19.40;10.95;;;8.50;99.90;;;;;;5068331;28;20041;-68
2023/12/13 05:10:23;;;;;;;19.00;10.48;;;8.50;99.90;;;;;;5060751;28;20105;-69
2023/12/13 05:12:50;;;;;;;24.08;10.90;;;8.50;99.90;;;;;;5068285;28;20056;-69
2023/12/13 05:15:17;;;;;;;17.27;11.05;;;8.50;99.90;;;;;;5064720;28;20052;-68
2023/12/13 05:17:44;;;;;;;17.40;9.93;;;8.50;99.90;;;;;;5064944;28;20048;-69
2023/12/13 05:20:11;;;;;;;19.70;11.57;;;8.50;99.90;;;;;;5068795;28;20064;-68
2023/12/13 05:22:38;;;;;;;21.33;11.35;;;8.50;99.90;;;;;;5066080;28;20106;-68
2023/12/13 05:25:05;;;;;;;19.38;11.45;;;8.50;99.90;;;;;;5067616;28;20051;-68
2023/12/13 05:27:32;;;;;;;16.98;11.00;;;8.50;99.90;;;;;;5068370;28;20048;-68
2023/12/13 05:30:00;;;;;;;16.77;10.85;;;8.50;99.90;;;;;;5068259;28;20040;-68
2023/12/13 05:32:26;;;;;;;20.30;11.15;;;8.60;99.90;;;;;;5066554;28;20040;-69
2023/12/13 05:34:53;;;;;;;18.52;10.88;;;8.60;99.90;;;;;;5050251;28;20076;-69
2023/12/13 05:37:20;;;;;;;18.42;10.85;;;8.60;99.90;;;;;;5067819;28;20428;-68
2023/12/13 05:39:47;;;;;;;21.48;12.57;;;8.60;99.90;;;;;;5067909;28;20052;-68
2023/12/13 05:42:14;;;;;;;23.52;11.38;;;8.60;99.90;;;;;;5067210;28;20052;-69
2023/12/13 05:44:41;;;;;;;28.27;12.13;;;8.60;99.90;;;;;;5067765;28;20114;-69
2023/12/13 05:47:08;;;;;;;17.65;10.43;;;8.60;99.90;;;;;;5067909;28;20044;-68
2023/12/13 05:49:35;;;;;;;15.05;7.85;;;8.60;99.90;;;;;;5066734;28;20048;-69
2023/12/13 05:52:03;;;;;;;17.73;8.90;;;8.60;99.90;;;;;;5067843;28;20399;-68
2023/12/13 05:54:30;;;;;;;12.18;6.93;;;8.60;99.90;;;;;;5066992;28;20040;-69
2023/12/13 05:56:56;;;;;;;11.80;7.47;;;8.50;99.90;;;;;;5064547;28;20063;-69
2023/12/13 05:59:23;;;;;;;13.63;8.13;;;8.50;99.90;;;;;;5067386;28;20090;-69
2023/12/13 06:01:50;;;;;;;14.50;7.97;;;8.60;99.90;;;;;;5067074;28;20044;-68
2023/12/13 06:04:17;;;;;;;21.33;9.23;;;8.60;99.90;;;;;;5063238;28;20036;-68
2023/12/13 06:06:44;;;;;;;12.90;7.32;;;8.60;99.90;;;;;;5067625;28;20044;-69
2023/12/13 06:09:12;;;;;;;14.00;7.18;;;8.60;99.90;;;;;;5067187;28;20143;-68
2023/12/13 06:11:38;;;;;;;14.50;6.70;;;8.60;99.90;;;;;;5063323;28;20492;-69
2023/12/13 06:14:05;;;;;;;12.75;7.38;;;8.60;99.90;;;;;;5068184;28;20550;-70
2023/12/13 06:16:32;;;;;;;15.00;6.97;;;8.60;99.90;;;;;;5065122;28;20549;-68
2023/12/13 06:18:59;;;;;;;12.98;6.47;;;8.60;99.90;;;;;;5066353;28;20128;-69
2023/12/13 06:21:26;;;;;;;11.85;6.60;;;8.60;99.90;;;;;;5061016;28;20044;-67
2023/12/13 06:23:53;;;;;;;13.82;7.13;;;8.60;99.90;;;;;;5052788;28;20396;-67
2023/12/13 06:26:20;;;;;;;13.73;6.38;;;8.50;99.90;;;;;;5024545;28;20049;-67
2023/12/13 06:28:53;;;;;;;13.40;6.78;;;8.50;99.90;;;;;;5061952;28;20052;-69
2023/12/13 06:31:21;;;;;;;16.58;6.72;;;8.40;99.90;;;;;;5045951;28;20122;-67
2023/12/13 06:33:48;;;;;;;15.93;7.38;;;8.40;99.90;;;;;;5065134;28;20059;-68
2023/12/13 06:36:14;;;;;;;16.80;7.60;;;8.30;99.90;;;;;;5067472;28;20048;-67
2023/12/13 06:38:41;;;;;;;16.65;7.10;;;8.30;99.90;;;;;;5061717;28;20118;-68
2023/12/13 06:41:08;;;;;;;15.55;8.50;;;8.30;99.90;;;;;;5065873;28;20048;-68
2023/12/13 06:43:35;;;;;;;17.70;7.50;;;8.30;99.90;;;;;;5064293;28;20176;-68
2023/12/13 06:46:02;;;;;;;13.27;7.75;;;8.30;99.90;;;;;;5062814;28;20051;-67
2023/12/13 06:48:29;;;;;;;19.35;8.75;;;8.30;99.90;;;;;;5060061;28;20117;-68
2023/12/13 06:50:56;;;;;;;16.88;8.90;;;8.30;99.90;;;;;;5062154;28;20140;-68
2023/12/13 06:53:23;;;;;;;20.00;9.25;;;8.30;99.90;;;;;;5040802;28;20052;-68
2023/12/13 06:55:50;;;;;;;18.92;10.07;;;8.30;99.90;;;;;;5057684;28;20048;-66
2023/12/13 06:58:17;;;;;;;22.08;10.13;;;8.30;99.90;;;;;;5062530;28;20529;-68
2023/12/13 07:00:44;;;;;;;16.08;9.77;;;8.30;99.90;;;;;;5061438;28;20052;-67
2023/12/13 07:03:11;;;;;;;18.45;9.75;;;8.30;99.90;;;;;;5059054;28;20048;-68
2023/12/13 07:05:38;;;;;;;18.60;10.48;;;8.30;99.90;;;;;;5063032;28;20114;-68
2023/12/13 07:08:05;;;;;;;20.73;10.43;;;8.30;99.90;;;;;;5064626;28;20058;-67
2023/12/13 07:10:32;;;;;;;14.60;9.23;;;8.30;99.90;;;;;;5043133;28;20436;-67
2023/12/13 07:12:59;;;;;;;14.18;7.40;;;8.40;99.90;;;;;;5065109;28;20080;-67
2023/12/13 07:15:27;;;;;;;15.48;8.13;;;8.30;99.90;;;;;;5030569;28;20044;-66
2023/12/13 07:17:54;;;;;;;18.48;8.18;;;8.30;99.90;;;;;;5043434;28;20126;-67
2023/12/13 07:20:21;;;;;;;16.60;6.78;;;8.30;99.90;;;;;;5063655;28;20047;-67
2023/12/13 07:22:51;;;;;;;13.73;6.93;;;8.30;99.90;;;;;;5064224;28;20051;-67
2023/12/13 07:25:18;;;;;;;16.85;7.38;;;8.40;99.90;;;;;;5073654;28;20106;-67
2023/12/13 07:27:45;;;;;;;15.23;6.55;;;8.30;99.90;;;;;;5060610;28;20183;-66
2023/12/13 07:30:12;;;;;;;12.25;6.50;;;8.30;99.90;;;;;;5060739;28;20052;-68
2023/12/13 07:32:44;;;;;;;12.35;6.88;;;8.30;99.90;;;;;;5057192;28;20075;-63
2023/12/13 07:35:11;;;;;;;17.27;7.68;;;8.40;99.90;;;;;;5064201;28;20052;-64
2023/12/13 07:37:38;;;;;;;15.65;7.03;;;8.30;99.90;;;;;;5061283;28;20120;-64
2023/12/13 07:40:06;;;;;;;15.70;7.50;;;8.40;99.90;;;;;;5049548;28;20436;-64
2023/12/13 07:42:33;;;;;;;15.70;5.95;;;8.30;99.90;;;;;;5068994;28;20409;-63
2023/12/13 07:45:01;;;;;;;12.00;6.18;;;8.40;99.90;;;;;;5064273;28;20048;-63
2023/12/13 07:47:28;;;;;;;13.45;5.70;;;8.30;99.90;;;;;;5046486;28;20044;-64
2023/12/13 07:49:55;;;;;;;13.52;6.68;;;8.30;99.90;;;;;;5069272;28;20144;-64
2023/12/13 07:52:22;;;;;;;16.20;7.28;;;8.30;99.90;;;;;;5067792;28;20053;-65
2023/12/13 07:54:49;;;;;;;13.43;6.95;;;8.30;99.90;;;;;;5062520;28;20052;-64
2023/12/13 07:57:16;;;;;;;13.63;7.07;;;8.30;99.90;;;;;;5063829;28;20372;-65
2023/12/13 07:59:43;;;;;;;17.48;6.82;;;8.30;99.90;;;;;;5060057;28;20129;-64
2023/12/13 08:02:09;;;;;;;12.73;6.25;;;8.30;99.90;;;;;;5067522;28;20491;-66
2023/12/13 08:04:36;;;;;;;14.77;6.10;;;8.30;99.90;;;;;;5066770;28;20400;-64
2023/12/13 08:07:04;;;;;;;10.80;5.55;;;8.30;99.90;;;;;;5065810;28;20044;-64
2023/12/13 08:09:31;;;;;;;15.82;6.57;;;8.30;99.90;;;;;;5068993;28;20064;-64
2023/12/13 08:11:58;;;;;;;11.65;5.80;;;8.30;99.90;;;;;;5069326;28;20048;-65
2023/12/13 08:14:30;;;;;;;14.15;5.70;;;8.30;99.90;;;;;;5067703;28;20049;-64
2023/12/13 08:16:57;;;;;;;11.85;5.40;;;8.30;99.90;;;;;;5049995;28;20041;-65
2023/12/13 08:19:26;;;;;;;8.93;4.72;;;8.30;99.90;;;;;;5073902;28;20041;-64
2023/12/13 08:21:53;;;;;;;13.73;6.03;;;8.30;99.90;;;;;;5066850;28;20483;-65
2023/12/13 08:24:20;;;;;;;9.77;5.10;;;8.30;99.90;;;;;;5065603;28;20610;-65
2023/12/13 08:26:47;;;;;;;8.93;4.47;;;8.30;99.90;;;;;;5067847;28;20096;-65
2023/12/13 08:29:14;;;;;;;10.75;4.07;;;8.20;99.90;;;;;;5050062;28;20052;-63
2023/12/13 08:31:41;;;;;;;6.88;3.72;;;8.30;99.90;;;;;;5067398;28;20166;-64
2023/12/13 08:34:08;;;;;;;10.93;3.50;;;8.20;99.90;;;;;;5067865;28;20129;-65
2023/12/13 08:36:35;;;;;;;11.82;3.17;;;8.20;99.90;;;;;;5068451;28;20079;-65
2023/12/13 08:39:02;;;;;;;5.20;3.38;;;8.20;99.90;;;;;;5050836;28;20044;-64
2023/12/13 08:41:29;;;;;;;5.63;2.70;;;8.20;99.90;;;;;;5069116;28;20044;-64
2023/12/13 08:43:56;;;;;;;5.22;2.50;;;8.10;99.90;;;;;;5067774;28;20049;-65
2023/12/13 08:46:23;;;;;;;4.38;2.58;;;8.10;99.90;;;;;;5068928;28;20144;-65
2023/12/13 08:48:50;;;;;;;4.10;3.03;;;8.10;99.90;;;;;;5068548;28;20041;-65
2023/12/13 08:51:17;;;;;;;5.05;3.20;;;8.10;99.90;;;;;;5069072;28;20048;-65
2023/12/13 08:53:44;;;;;;;5.80;2.65;;;8.10;99.90;;;;;;5067308;28;20055;-65
2023/12/13 08:56:11;;;;;;;6.78;2.90;;;8.20;99.90;;;;;;5068765;28;20048;-66
2023/12/13 08:58:38;;;;;;;3.88;2.33;;;8.10;99.90;;;;;;5051071;28;20048;-65
2023/12/13 09:01:05;;;;;;;4.55;2.40;;;8.10;99.90;;;;;;5067333;28;20059;-65
2023/12/13 09:03:32;;;;;;;3.58;2.35;;;8.10;99.90;;;;;;5068445;28;20041;-65
2023/12/13 09:05:59;;;;;;;4.60;2.60;;;8.10;99.90;;;;;;5065589;28;20405;-65
2023/12/13 09:08:26;;;;;;;6.50;2.90;;;8.10;99.90;;;;;;5068641;28;20054;-65
2023/12/13 09:10:53;;;;;;;6.93;3.05;;;8.10;99.90;;;;;;5070996;28;20040;-64
2023/12/13 09:13:20;;;;;;;5.25;3.22;;;8.10;99.90;;;;;;5050734;28;20048;-65
2023/12/13 09:15:47;;;;;;;7.40;3.35;;;8.10;99.90;;;;;;5082775;28;20487;-64
2023/12/13 09:18:14;;;;;;;5.25;3.67;;;8.20;99.90;;;;;;5066978;28;20123;-65
2023/12/13 09:20:41;;;;;;;8.80;4.45;;;8.20;99.90;;;;;;5067479;28;20381;-66
2023/12/13 09:23:10;;;;;;;5.20;3.17;;;8.20;99.90;;;;;;5066821;28;20044;-65
2023/12/13 09:25:36;;;;;;;5.75;3.30;;;8.30;99.90;;;;;;5066880;28;20079;-65
2023/12/13 09:28:03;;;;;;;7.00;3.20;;;8.30;99.90;;;;;;5050508;28;20044;-64
2023/12/13 09:30:30;;;;;;;7.10;3.90;;;8.30;99.90;;;;;;5049772;28;20403;-65
2023/12/13 09:32:57;;;;;;;10.50;4.47;;;8.20;99.90;;;;;;5073177;28;20055;-64
2023/12/13 09:35:24;;;;;;;10.23;4.68;;;8.20;99.90;;;;;;5082358;28;20091;-69
2023/12/13 09:37:51;;;;;;;8.98;4.53;;;8.20;99.90;;;;;;5068723;28;20084;-66
2023/12/13 09:40:19;;;;;;;7.18;4.43;;;8.20;99.90;;;;;;5067366;28;20058;-64
2023/12/13 09:42:46;;;;;;;11.75;4.80;;;8.20;99.90;;;;;;5065319;28;20045;-64
2023/12/13 09:45:20;;;;;;;10.63;5.25;;;8.10;99.90;;;;;;5064709;28;20052;-65
2023/12/13 09:47:51;;;;;;;12.95;5.10;;;8.20;99.90;;;;;;5067461;28;20460;-64
2023/12/13 09:50:19;;;;;;;6.72;3.85;;;8.10;99.90;;;;;;5062711;28;20066;-65
2023/12/13 09:52:46;;;;;;;5.30;4.07;;;8.10;99.90;;;;;;5065456;28;20067;-65
2023/12/13 09:55:14;;;;;;;8.55;4.45;;;8.20;99.90;;;;;;5081881;28;20135;-65
2023/12/13 09:57:42;;;;;;;13.57;4.70;;;8.10;99.90;;;;;;5068504;28;20040;-64
2023/12/13 10:00:12;;;;;;;6.25;4.47;;;8.20;99.90;;;;;;5066851;28;20056;-64
2023/12/13 10:02:39;;;;;;;8.02;4.07;;;8.20;99.90;;;;;;5066920;28;20057;-64
2023/12/13 10:05:10;;;;;;;7.35;3.67;;;8.30;99.90;;;;;;5068244;28;20144;-64
2023/12/13 10:07:38;;;;;;;4.90;3.28;;;8.20;99.90;;;;;;5079479;28;20049;-65
2023/12/13 10:10:06;;;;;;;4.20;3.17;;;8.30;99.90;;;;;;5049622;28;20113;-64
2023/12/13 10:12:35;;;;;;;5.32;2.70;;;8.30;99.90;;;;;;5065923;28;20044;-64
2023/12/13 10:15:11;;;;;;;5.93;2.97;;;8.30;99.90;;;;;;5065741;28;20040;-64
2023/12/13 10:17:56;;;;;;;;;;;8.40;99.90;;;;;;5049017;28;20048;-65
2023/12/13 10:20:41;;;;;;;3.45;2.63;;;8.40;99.90;;;;;;5066002;28;20087;-65
2023/12/13 10:23:08;;;;;;;4.13;1.90;;;8.40;99.90;;;;;;5066384;28;20118;-63
2023/12/13 10:25:36;;;;;;;2.70;2.08;;;8.40;99.90;;;;;;5044595;28;20117;-63
2023/12/13 10:28:04;;;;;;;3.67;2.40;;;8.40;99.90;;;;;;5048021;28;20099;-63
2023/12/13 10:30:32;;;;;;;3.28;1.77;;;8.50;99.90;;;;;;5066641;28;20048;-63
2023/12/13 10:32:59;;;;;;;2.33;1.15;;;8.50;99.90;;;;;;5066648;28;20126;-64
2023/12/13 10:35:26;;;;;;;6.20;1.70;;;8.60;99.90;;;;;;5059835;28;20094;-63
2023/12/13 10:37:55;;;;;;;8.80;2.08;;;8.60;99.90;;;;;;5064234;28;20694;-63
2023/12/13 10:40:22;;;;;;;2.97;1.50;;;8.60;99.90;;;;;;5048339;28;20053;-63
2023/12/13 10:42:54;;;;;;;2.88;0.90;;;8.50;99.90;;;;;;5031646;28;20044;-63
2023/12/13 10:45:21;;;;;;;1.13;0.90;;;8.50;99.90;;;;;;5079834;28;20125;-63
2023/12/13 10:47:48;;;;;;;3.67;1.10;;;8.40;99.90;;;;;;5049943;28;20040;-63
2023/12/13 10:50:15;;;;;;;3.17;1.10;;;8.40;99.90;;;;;;5048570;28;20136;-64
2023/12/13 10:52:42;;;;;;;3.85;1.33;;;8.40;99.90;;;;;;5048305;28;20491;-64
2023/12/13 10:55:09;;;;;;;3.05;1.20;;;8.30;99.90;;;;;;5081251;28;20105;-64
2023/12/13 10:57:36;;;;;;;1.95;1.15;;;8.20;99.90;;;;;;5081663;28;20117;-63
2023/12/13 11:00:07;;;;;;;2.47;1.20;;;8.20;99.90;;;;;;5065922;28;20102;-64
2023/12/13 11:02:59;;;;;;;2.72;1.35;;;8.20;99.90;;;;;;5068238;28;20060;-64
2023/12/13 11:05:26;;;;;;;3.38;1.20;;;8.20;99.90;;;;;;5043873;28;20472;-65
2023/12/13 11:07:53;;;;;;;4.28;0.80;;;8.20;99.90;;;;;;5065842;28;20045;-64
2023/12/13 11:10:22;;;;;;;5.40;0.80;;;8.20;99.90;;;;;;5065593;28;20163;-64
2023/12/13 11:12:50;;;;;;;3.78;1.00;;;8.20;99.90;;;;;;5065490;28;20056;-64
2023/12/13 11:15:18;;;;;;;8.70;0.98;;;8.20;99.90;;;;;;5065767;28;20048;-64
2023/12/13 11:17:55;;;;;;;1.95;0.60;;;8.20;99.90;;;;;;5065823;28;20048;-63
2023/12/13 11:20:23;;;;;;;2.92;0.73;;;8.20;99.90;;;;;;5065977;28;20063;-64
2023/12/13 11:22:54;;;;;;;2.17;0.90;;;8.30;99.90;;;;;;5067224;28;20124;-64
2023/12/13 11:25:21;;;;;;;3.58;0.55;;;8.30;99.90;;;;;;5069947;28;20425;-64
2023/12/13 11:27:51;;;;;;;1.67;0.65;;;8.30;99.90;;;;;;5052194;28;20051;-64
2023/12/13 11:30:19;;;;;;;0.93;0.40;;;8.30;99.90;;;;;;5084959;28;20419;-63
2023/12/13 11:32:46;;;;;;;3.95;0.65;;;8.20;99.90;;;;;;5036065;28;20495;-63
2023/12/13 11:35:15;;;;;;;1.75;0.60;;;8.20;99.90;;;;;;5069797;28;20118;-63
2023/12/13 11:37:52;;;;;;;2.03;0.60;;;8.20;99.90;;;;;;5069988;28;20658;-64
2023/12/13 11:40:19;;;;;;;2.47;0.80;;;8.20;99.90;;;;;;5069235;28;20044;-63
2023/12/13 11:42:47;;;;;;;1.45;0.50;;;8.20;99.90;;;;;;5069551;28;20048;-64
2023/12/13 11:45:14;;;;;;;0.88;0.60;;;8.10;99.90;;;;;;5068372;28;20075;-63
2023/12/13 11:47:45;;;;;;;1.35;0.32;;;8.10;99.90;;;;;;5050722;28;20048;-63
2023/12/13 11:50:13;;;;;;;2.00;0.73;;;8.10;99.90;;;;;;5051578;28;20199;-63
2023/12/13 11:52:40;;;;;;;6.00;1.20;;;8.10;99.90;;;;;;5091290;28;20058;-64
2023/12/13 11:55:08;;;;;;;2.58;0.90;;;8.20;99.90;;;;;;5069822;28;20041;-63
2023/12/13 11:57:40;;;;;;;2.67;0.68;;;8.20;99.90;;;;;;5060727;28;20131;-64
2023/12/13 12:00:07;;;;;;;1.58;0.60;;;8.10;99.90;;;;;;5051165;28;20071;-64
2023/12/13 12:02:34;;;;;;;2.40;0.30;;;8.10;99.90;;;;;;5089469;28;20108;-65
2023/12/13 12:05:01;;;;;;;1.10;0.55;;;8.00;99.90;;;;;;5050418;28;20060;-64
2023/12/13 12:07:28;;;;;;;6.00;1.00;;;8.00;99.90;;;;;;5063670;28;20080;-63
2023/12/13 12:09:56;;;;;;;6.18;1.52;;;8.00;99.90;;;;;;5069418;28;20059;-63
2023/12/13 12:12:23;;;;;;;3.72;0.70;;;8.00;99.90;;;;;;5069119;28;20056;-64
2023/12/13 12:14:50;;;;;;;4.72;1.00;;;8.00;99.90;;;;;;5069281;28;20071;-64
2023/12/13 12:17:20;;;;;;;1.80;0.70;;;8.00;99.90;;;;;;5068663;28;20055;-64
2023/12/13 12:19:47;;;;;;;1.98;0.60;;;7.90;99.90;;;;;;5068334;28;20525;-64
2023/12/13 12:22:15;;;;;;;1.35;0.50;;;7.90;99.90;;;;;;5068976;28;20052;-65
2023/12/13 12:24:45;;;;;;;4.00;0.60;;;7.90;99.90;;;;;;5032159;28;20144;-64
2023/12/13 12:27:12;;;;;;;1.98;0.93;;;7.80;99.90;;;;;;5068504;28;20495;-64
2023/12/13 12:29:40;;;;;;;3.88;0.75;;;7.80;99.90;;;;;;5051136;28;20091;-64
2023/12/13 12:32:11;;;;;;;6.40;0.85;;;7.90;99.90;;;;;;5068773;28;20048;-64
2023/12/13 12:34:41;;;;;;;2.80;0.95;;;7.80;99.90;;;;;;5068254;28;20128;-64
2023/12/13 12:37:08;;;;;;;3.55;1.17;;;7.80;99.90;;;;;;5068981;28;20041;-64
2023/12/13 12:39:36;;;;;;;2.70;0.50;;;7.90;99.90;;;;;;5075671;28;20079;-63
2023/12/13 12:42:03;;;;;;;3.47;1.00;;;7.80;99.90;;;;;;5068813;28;20086;-64
2023/12/13 12:44:30;;;;;;;2.83;0.70;;;7.80;99.90;;;;;;5075699;28;20114;-65
2023/12/13 12:46:57;;;;;;;5.07;0.68;;;7.80;99.90;;;;;;5067899;28;20052;-63
2023/12/13 12:49:24;;;;;;;3.58;1.10;;;7.70;99.90;;;;;;5074761;28;20051;-64
2023/12/13 12:51:51;;;;;;;1.77;0.80;;;7.70;99.90;;;;;;5050658;28;20040;-64